Time;durP1;ratioP1;P1;durP2;ratioP2;P2;SDS_P1;SDS_P2;PMS_P1;PMS_P2;Temp;Humidity;BMP_temperature;BMP_pressure;BME280_temperature;BME280_humidity;BME280_pressure;Samples;Min_cycle;Max_cycle;Signal;HPM_P1;HPM_P2
2024/01/08 00:07:13;;;;;;;0.85;0.85;;;;;;;16.15;42.33;102830.72;21008590;28;20575;-71
2024/01/08 00:17:15;;;;;;;1.70;1.25;;;;;;;16.09;42.41;102822.03;20982056;28;20097;-71
2024/01/08 00:27:17;;;;;;;1.67;1.17;;;;;;;16.05;42.08;102825.81;20987764;28;20044;-70
2024/01/08 00:37:18;;;;;;;1.55;1.20;;;;;;;16.02;42.18;102825.97;21005086;28;20048;-71
2024/01/08 00:47:20;;;;;;;1.70;1.30;;;;;;;15.99;42.04;102844.94;20990874;28;20167;-72
2024/01/08 00:57:22;;;;;;;1.20;1.10;;;;;;;15.94;42.01;102850.50;21004528;28;20109;-71
2024/01/08 01:07:26;;;;;;;1.42;1.33;;;;;;;15.93;41.60;102842.56;20991056;28;20082;-72
2024/01/08 01:17:28;;;;;;;1.48;1.23;;;;;;;15.88;41.76;102852.63;21010164;28;20044;-71
2024/01/08 01:27:30;;;;;;;1.80;1.40;;;;;;;15.90;41.40;102854.31;21003939;28;20483;-71
2024/01/08 01:37:31;;;;;;;1.50;1.30;;;;;;;16.00;41.30;102857.41;21002648;28;20504;-71
2024/01/08 01:47:33;;;;;;;1.35;1.25;;;;;;;16.11;41.04;102874.81;21034298;28;20055;-72
2024/01/08 01:57:36;;;;;;;1.50;1.40;;;;;;;16.13;40.73;102875.59;21008769;28;20411;-72
2024/01/08 02:07:39;;;;;;;1.88;1.30;;;;;;;16.16;40.78;102886.19;21016410;28;20054;-71
2024/01/08 02:17:41;;;;;;;1.30;1.20;;;;;;;16.15;40.70;102892.53;21017305;28;20051;-72
2024/01/08 02:27:43;;;;;;;2.20;1.58;;;;;;;16.16;40.66;102884.41;20996545;28;20664;-71
2024/01/08 02:37:45;;;;;;;2.00;1.27;;;;;;;16.15;40.79;102888.03;20999120;28;20056;-72
2024/01/08 02:47:46;;;;;;;1.92;1.60;;;;;;;16.14;40.47;102888.97;21013026;28;20051;-71
2024/01/08 02:57:48;;;;;;;1.92;1.58;;;;;;;16.14;40.44;102899.72;21029844;28;20055;-72
2024/01/08 03:07:50;;;;;;;1.90;1.50;;;;;;;15.94;40.58;102873.84;21006713;28;20535;-71
2024/01/08 03:17:52;;;;;;;2.03;1.40;;;;;;;16.09;40.67;102913.38;21028924;28;20044;-72
2024/01/08 03:27:54;;;;;;;1.98;1.58;;;;;;;16.13;40.66;102910.53;20992877;28;20514;-71
2024/01/08 03:37:56;;;;;;;2.25;1.58;;;;;;;16.12;40.54;102912.34;20995116;28;20416;-71
2024/01/08 03:47:58;;;;;;;1.30;1.20;;;;;;;16.14;40.67;102904.22;21027821;28;20058;-71
2024/01/08 03:58:00;;;;;;;1.90;1.40;;;;;;;16.07;40.54;102893.78;20973444;28;20113;-72
2024/01/08 04:08:02;;;;;;;1.77;1.67;;;;;;;16.18;40.31;102897.75;21000683;28;20048;-71
2024/01/08 04:18:04;;;;;;;2.13;1.80;;;;;;;16.25;40.29;102899.16;20992392;28;20741;-71
2024/01/08 04:28:06;;;;;;;2.00;1.35;;;;;;;16.31;40.25;102901.53;21014550;28;20063;-70
2024/01/08 04:38:08;;;;;;;2.05;1.30;;;;;;;16.23;40.17;102893.00;21007037;28;20052;-72
2024/01/08 04:48:10;;;;;;;1.30;1.13;;;;;;;16.10;40.59;102895.41;20988708;28;20072;-72
2024/01/08 04:58:12;;;;;;;1.55;1.02;;;;;;;16.13;40.37;102897.09;21020243;28;20113;-72
2024/01/08 05:08:13;;;;;;;1.58;1.20;;;;;;;16.07;40.60;102891.09;21023067;28;20052;-72
2024/01/08 05:18:15;;;;;;;1.45;1.27;;;;;;;16.14;40.16;102905.09;21004835;28;20055;-72
2024/01/08 05:28:17;;;;;;;1.23;1.00;;;;;;;16.22;40.13;102912.75;20983182;28;20075;-72
2024/01/08 05:38:19;;;;;;;1.92;1.30;;;;;;;16.31;40.06;102909.59;20999972;28;20477;-71
2024/01/08 05:48:21;;;;;;;1.20;1.10;;;;;;;16.38;39.79;102912.88;21008554;28;20105;-72
2024/01/08 05:58:23;;;;;;;1.40;1.10;;;;;;;16.38;39.86;102912.88;20991731;28;20162;-72
2024/01/08 06:08:25;;;;;;;1.25;1.10;;;;;;;16.46;39.98;102929.47;21023702;28;20044;-72
2024/01/08 06:18:27;;;;;;;1.15;1.05;;;;;;;16.56;39.77;102940.66;21007502;28;20340;-71
2024/01/08 06:28:29;;;;;;;1.20;1.10;;;;;;;16.60;39.77;102934.16;20991362;28;20067;-72
2024/01/08 06:38:30;;;;;;;1.42;1.10;;;;;;;16.62;39.85;102942.16;21032965;28;20411;-71
2024/01/08 06:48:32;;;;;;;2.15;1.20;;;;;;;16.64;39.65;102937.59;21027033;28;20052;-71
2024/01/08 06:58:34;;;;;;;1.42;1.10;;;;;;;16.67;39.79;102940.13;21014979;28;20048;-71
2024/01/08 07:08:36;;;;;;;1.17;1.05;;;;;;;16.73;39.78;102946.97;21017018;28;20052;-72
2024/01/08 07:18:38;;;;;;;1.45;1.13;;;;;;;16.73;39.64;102955.06;21004188;28;20059;-71
2024/01/08 07:28:45;;;;;;;1.20;0.90;;;;;;;16.61;39.95;102952.03;21002493;28;20054;-72
2024/01/08 07:38:47;;;;;;;1.10;0.93;;;;;;;16.66;39.84;102971.50;21036773;28;20052;-71
2024/01/08 07:48:50;;;;;;;2.78;1.15;;;;;;;16.62;39.86;102988.75;21015101;28;20136;-72
2024/01/08 07:58:53;;;;;;;1.05;0.80;;;;;;;16.61;39.75;102983.47;21001338;28;20050;-71
2024/01/08 08:08:55;;;;;;;1.13;1.00;;;;;;;16.61;39.63;102992.38;21019941;28;20048;-72
2024/01/08 08:18:56;;;;;;;1.25;0.82;;;;;;;16.61;39.46;102989.69;21002963;28;20051;-72
2024/01/08 08:28:58;;;;;;;1.10;0.90;;;;;;;16.64;39.37;103012.88;21005899;28;20047;-71
2024/01/08 08:39:00;;;;;;;1.33;1.10;;;;;;;16.62;39.26;103023.69;20993498;28;20515;-71
2024/01/08 08:49:03;;;;;;;1.98;1.20;;;;;;;16.57;39.58;103039.19;21007391;28;20055;-80
2024/01/08 08:59:05;;;;;;;1.95;0.95;;;;;;;16.74;39.95;103042.88;21007646;28;20040;-78
2024/01/08 09:09:09;;;;;;;1.60;1.13;;;;;;;16.95;39.65;103055.25;21031570;28;20048;-78
2024/01/08 09:19:10;;;;;;;2.00;1.30;;;;;;;17.10;39.29;103063.53;21024475;28;20515;-76
2024/01/08 09:29:12;;;;;;;1.70;1.40;;;;;;;17.22;39.02;103076.34;20977987;28;20077;-75
2024/01/08 09:39:15;;;;;;;1.63;1.10;;;;;;;17.35;38.71;103097.28;20968337;28;20044;-72
2024/01/08 09:49:19;;;;;;;2.13;1.00;;;;;;;16.96;39.02;103027.41;20994443;28;20491;-71
2024/01/08 09:59:21;;;;;;;2.58;1.35;;;;;;;17.53;39.29;103112.47;21022105;28;20051;-70
2024/01/08 10:09:24;;;;;;;1.60;1.13;;;;;;;17.64;39.38;103108.31;21010158;28;20055;-71
2024/01/08 10:19:27;;;;;;;1.20;1.00;;;;;;;17.75;39.09;103105.97;21000207;28;20109;-72
2024/01/08 10:29:30;;;;;;;1.85;1.20;;;;;;;17.80;38.63;103109.28;20968763;28;20053;-74
2024/01/08 10:39:32;;;;;;;1.20;1.08;;;;;;;17.86;38.47;103097.28;20984766;28;20056;-74
2024/01/08 10:49:54;;;;;;;2.03;1.33;;;;;;;17.89;38.19;103101.66;20982915;28;20058;-73
2024/01/08 10:59:56;;;;;;;2.35;1.20;;;;;;;17.88;37.93;103089.97;20952651;28;20076;-74
2024/01/08 11:10:05;;;;;;;1.00;0.90;;;;;;;17.95;37.69;103093.22;20998185;28;20071;-74
2024/01/08 11:20:43;;;;;;;1.90;1.30;;;;;;;18.57;36.92;103079.09;20964479;28;20052;-74
2024/01/08 11:30:48;;;;;;;1.60;1.10;;;;;;;18.58;36.17;103083.53;21013745;28;20048;-74
2024/01/08 11:40:49;;;;;;;1.85;1.40;;;;;;;18.32;36.23;103087.66;21001483;28;20051;-74
2024/01/08 11:50:51;;;;;;;1.00;0.95;;;;;;;18.18;36.26;103077.66;21025702;28;20151;-74
2024/01/08 12:00:53;;;;;;;1.75;1.00;;;;;;;18.10;36.26;103078.94;20981792;28;20045;-74
2024/01/08 12:10:55;;;;;;;1.80;0.90;;;;;;;18.18;36.17;103085.75;20979621;28;20496;-74
2024/01/08 12:20:57;;;;;;;1.52;1.20;;;;;;;18.44;36.09;103078.91;21020795;28;20035;-70
2024/01/08 12:30:59;;;;;;;1.65;1.20;;;;;;;21.34;33.15;103088.97;20982741;28;20086;-73
2024/01/08 12:41:00;;;;;;;1.50;1.27;;;;;;;21.92;32.55;103080.44;20984076;28;20114;-73
2024/01/08 12:51:02;;;;;;;1.75;1.27;;;;;;;21.31;33.05;103090.03;21024774;28;20346;-73
2024/01/08 13:01:04;;;;;;;1.73;1.30;;;;;;;20.04;34.51;103074.00;21007365;28;20071;-71
2024/01/08 13:11:06;;;;;;;1.80;1.00;;;;;;;19.19;35.27;103077.31;20989456;28;20058;-72
2024/01/08 13:21:10;;;;;;;1.93;1.60;;;;;;;18.72;35.78;103084.53;21009052;28;20157;-72
2024/01/08 13:31:12;;;;;;;1.60;1.30;;;;;;;18.29;36.01;103088.72;21007116;28;20048;-76
2024/01/08 13:41:14;;;;;;;1.27;1.08;;;;;;;18.01;36.16;103084.84;20999115;28;20052;-76
2024/01/08 13:51:16;;;;;;;1.98;1.52;;;;;;;17.83;36.04;103092.94;20985397;28;20089;-76
2024/01/08 14:01:18;;;;;;;1.35;1.25;;;;;;;17.68;36.02;103091.09;21015531;28;20458;-76
2024/01/08 14:11:20;;;;;;;2.35;1.15;;;;;;;17.58;36.29;103097.88;21031019;28;20174;-76
2024/01/08 14:21:22;;;;;;;2.13;1.40;;;;;;;17.50;36.25;103099.16;21031138;28;20132;-76
2024/01/08 14:31:24;;;;;;;1.30;1.13;;;;;;;17.44;36.19;103109.38;21012559;28;20055;-76
2024/01/08 14:41:26;;;;;;;2.50;1.23;;;;;;;17.36;36.21;103112.47;21028956;28;20048;-75
2024/01/08 14:51:28;;;;;;;1.88;1.30;;;;;;;17.33;36.18;103120.72;21011965;28;20056;-71
2024/01/08 15:01:30;;;;;;;1.30;1.20;;;;;;;17.24;36.12;103117.53;21027153;28;20056;-75
2024/01/08 15:11:32;;;;;;;1.42;1.30;;;;;;;17.18;36.15;103122.34;21044681;28;20769;-75
2024/01/08 15:21:34;;;;;;;1.80;1.30;;;;;;;17.13;36.23;103125.25;21043819;28;20105;-76
2024/01/08 15:31:35;;;;;;;2.05;1.30;;;;;;;17.07;36.19;103137.22;21005859;28;20488;-75
2024/01/08 15:41:37;;;;;;;1.88;1.20;;;;;;;17.02;36.40;103136.59;21006528;28;20518;-76
2024/01/08 15:51:39;;;;;;;1.33;1.23;;;;;;;16.95;36.27;103149.44;21008248;28;20110;-75
2024/01/08 16:01:41;;;;;;;1.50;1.38;;;;;;;16.92;36.29;103154.97;21016727;28;20075;-75
2024/01/08 16:11:43;;;;;;;1.55;1.10;;;;;;;16.89;36.26;103160.50;21005904;28;20109;-76
2024/01/08 16:21:45;;;;;;;1.92;1.38;;;;;;;16.86;36.34;103175.91;21005142;28;20573;-76
2024/01/08 16:31:47;;;;;;;1.55;1.25;;;;;;;16.79;36.55;103186.97;21000416;28;20047;-64
2024/01/08 16:41:49;;;;;;;1.95;1.52;;;;;;;16.21;37.29;103195.91;20995228;28;20152;-67
2024/01/08 16:51:51;;;;;;;2.40;1.70;;;;;;;15.59;39.24;103179.75;21008933;28;20411;-67
2024/01/08 17:01:53;;;;;;;5.18;1.60;;;;;;;15.17;40.92;103209.19;20975935;28;20063;-66
2024/01/08 17:11:55;;;;;;;2.33;1.35;;;;;;;15.01;42.43;103213.41;21001494;28;20052;-66
2024/01/08 17:21:57;;;;;;;2.00;1.60;;;;;;;15.00;43.64;103219.69;20963463;28;20060;-64
2024/01/08 17:32:00;;;;;;;2.55;1.23;;;;;;;15.06;44.75;103222.16;20970605;28;20055;-66
2024/01/08 17:42:02;;;;;;;3.47;1.60;;;;;;;15.15;47.12;103227.16;20979286;28;20599;-68
2024/01/08 17:52:05;;;;;;;2.13;1.38;;;;;;;15.36;45.71;103232.56;20978080;28;20055;-63
2024/01/08 18:02:08;;;;;;;1.80;1.30;;;;;;;15.03;45.57;103182.91;21015379;28;20496;-64
2024/01/08 18:12:10;;;;;;;2.33;1.10;;;;;;;15.22;45.24;103239.38;21009857;28;20048;-64
2024/01/08 18:22:12;;;;;;;2.75;1.35;;;;;;;15.19;45.07;103247.56;20984352;28;20067;-65
2024/01/08 18:32:14;;;;;;;2.22;1.30;;;;;;;15.07;45.00;103246.22;20994439;28;20806;-65
2024/01/08 18:42:16;;;;;;;1.77;1.30;;;;;;;14.91;44.62;103254.00;20980795;28;20055;-65
2024/01/08 18:52:21;;;;;;;3.57;1.20;;;;;;;14.87;44.51;103259.56;21012924;28;20086;-65
2024/01/08 19:02:23;;;;;;;2.03;1.25;;;;;;;14.83;44.00;103268.66;20976547;28;20511;-64
2024/01/08 19:12:26;;;;;;;2.00;1.13;;;;;;;14.74;43.89;103276.09;20994226;28;20777;-65
2024/01/08 19:22:28;;;;;;;1.70;1.10;;;;;;;14.72;43.61;103287.81;20989381;28;20059;-65
2024/01/08 19:32:30;;;;;;;2.20;1.45;;;;;;;14.59;43.41;103280.19;20988441;28;20063;-64
2024/01/08 19:42:32;;;;;;;2.17;1.25;;;;;;;14.71;42.91;103291.44;20987455;28;20097;-64
2024/01/08 19:52:34;;;;;;;2.28;1.60;;;;;;;14.65;42.83;103285.34;21006146;28;20170;-64
2024/01/08 20:02:36;;;;;;;2.05;1.38;;;;;;;14.63;42.16;103300.59;21026306;28;20048;-64
2024/01/08 20:12:38;;;;;;;2.17;1.45;;;;;;;14.58;41.97;103312.41;21010771;28;20054;-66
2024/01/08 20:22:40;;;;;;;2.80;1.80;;;;;;;14.48;42.27;103311.84;20983062;28;20059;-67
2024/01/08 20:32:47;;;;;;;2.45;1.70;;;;;;;14.57;41.68;103314.19;20987373;28;20044;-67
2024/01/08 20:42:49;;;;;;;4.30;2.08;;;;;;;14.35;45.40;103317.66;20994028;28;20052;-66
2024/01/08 20:52:51;;;;;;;4.28;2.00;;;;;;;14.46;45.28;103327.13;20970864;28;20052;-66
2024/01/08 21:02:53;;;;;;;2.95;2.00;;;;;;;14.39;44.78;103306.81;20928686;28;20044;-67
2024/01/08 21:12:55;;;;;;;3.40;1.80;;;;;;;14.59;44.56;103332.94;20961467;28;20043;-66
2024/01/08 21:22:58;;;;;;;4.00;2.10;;;;;;;14.53;43.83;103338.50;21003822;28;20052;-64
2024/01/08 21:33:00;;;;;;;3.55;1.88;;;;;;;14.48;43.91;103341.34;20996768;28;20067;-64
2024/01/08 21:43:03;;;;;;;2.78;1.70;;;;;;;14.49;43.26;103335.94;21002593;28;20047;-64
2024/01/08 21:53:04;;;;;;;2.83;1.50;;;;;;;14.45;43.11;103344.13;21014460;28;20052;-66
2024/01/08 22:03:06;;;;;;;3.85;1.90;;;;;;;14.45;42.84;103352.16;20982087;28;20070;-66
2024/01/08 22:13:14;;;;;;;2.75;1.73;;;;;;;14.47;42.78;103364.59;20993534;28;20073;-66
2024/01/08 22:23:16;;;;;;;2.88;1.60;;;;;;;14.45;42.78;103354.84;20988271;28;20393;-66
2024/01/08 22:33:17;;;;;;;2.35;1.60;;;;;;;14.30;42.68;103350.88;21011386;28;20076;-66
2024/01/08 22:43:20;;;;;;;2.28;1.70;;;;;;;14.21;42.36;103360.13;21009969;28;20461;-66
2024/01/08 22:53:21;;;;;;;2.65;1.75;;;;;;;14.14;42.51;103361.25;21020225;28;20389;-66
2024/01/08 23:03:23;;;;;;;1.73;1.17;;;;;;;14.09;42.84;103357.84;21021689;28;20051;-66
2024/01/08 23:13:25;;;;;;;2.78;1.55;;;;;;;14.01;42.73;103358.97;21037581;28;20052;-66
2024/01/08 23:23:27;;;;;;;2.33;1.60;;;;;;;14.04;42.35;103350.84;21015459;28;20491;-66
2024/01/08 23:33:29;;;;;;;2.47;1.70;;;;;;;14.05;42.45;103352.59;21004438;28;20071;-66
2024/01/08 23:43:31;;;;;;;1.42;1.25;;;;;;;14.04;42.39;103345.47;20984941;28;20047;-66
2024/01/08 23:53:33;;;;;;;2.53;1.45;;;;;;;14.04;42.00;103344.63;21011512;28;20419;-66
